sensor_id;sensor_type;location;lat;lon;timestamp;P1;durP1;ratioP1;P2;durP2;ratioP2
27612;SDS011;15036;48.094;-1.690;2023-05-19T00:01:42;6.32;;;2.97;;
27612;SDS011;15036;48.094;-1.690;2023-05-19T00:04:09;9.85;;;3.40;;
27612;SDS011;15036;48.094;-1.690;2023-05-19T00:06:36;7.82;;;3.30;;
27612;SDS011;15036;48.094;-1.690;2023-05-19T00:09:05;7.68;;;3.10;;
27612;SDS011;15036;48.094;-1.690;2023-05-19T00:14:00;7.50;;;3.25;;
27612;SDS011;15036;48.094;-1.690;2023-05-19T00:16:28;8.77;;;3.42;;
27612;SDS011;15036;48.094;-1.690;2023-05-19T00:18:56;8.13;;;3.53;;
27612;SDS011;15036;48.094;-1.690;2023-05-19T00:21:23;6.38;;;3.50;;
27612;SDS011;15036;48.094;-1.690;2023-05-19T00:23:49;11.63;;;3.30;;
27612;SDS011;15036;48.094;-1.690;2023-05-19T00:26:15;8.45;;;3.95;;
27612;SDS011;15036;48.094;-1.690;2023-05-19T00:28:40;8.80;;;3.58;;
27612;SDS011;15036;48.094;-1.690;2023-05-19T00:31:05;7.47;;;3.65;;
27612;SDS011;15036;48.094;-1.690;2023-05-19T00:33:31;8.50;;;3.63;;
27612;SDS011;15036;48.094;-1.690;2023-05-19T00:36:00;8.02;;;3.60;;
27612;SDS011;15036;48.094;-1.690;2023-05-19T00:38:27;9.50;;;3.90;;
27612;SDS011;15036;48.094;-1.690;2023-05-19T00:40:54;8.60;;;3.75;;
27612;SDS011;15036;48.094;-1.690;2023-05-19T00:43:19;6.97;;;3.35;;
27612;SDS011;15036;48.094;-1.690;2023-05-19T00:45:45;8.27;;;3.42;;
27612;SDS011;15036;48.094;-1.690;2023-05-19T00:48:10;10.65;;;4.25;;
27612;SDS011;15036;48.094;-1.690;2023-05-19T00:50:36;10.65;;;4.18;;
27612;SDS011;15036;48.094;-1.690;2023-05-19T00:53:01;9.23;;;4.18;;
27612;SDS011;15036;48.094;-1.690;2023-05-19T00:55:27;10.63;;;4.53;;
27612;SDS011;15036;48.094;-1.690;2023-05-19T00:57:55;8.40;;;4.07;;
27612;SDS011;15036;48.094;-1.690;2023-05-19T01:00:21;9.98;;;4.57;;
27612;SDS011;15036;48.094;-1.690;2023-05-19T01:02:47;10.73;;;4.20;;
27612;SDS011;15036;48.094;-1.690;2023-05-19T01:05:14;11.80;;;4.70;;
27612;SDS011;15036;48.094;-1.690;2023-05-19T01:07:40;12.52;;;4.03;;
27612;SDS011;15036;48.094;-1.690;2023-05-19T01:10:06;12.25;;;4.63;;
27612;SDS011;15036;48.094;-1.690;2023-05-19T01:12:32;11.10;;;4.72;;
27612;SDS011;15036;48.094;-1.690;2023-05-19T01:14:58;7.38;;;5.25;;
27612;SDS011;15036;48.094;-1.690;2023-05-19T01:20:21;10.68;;;4.78;;
27612;SDS011;15036;48.094;-1.690;2023-05-19T01:30:59;11.45;;;4.88;;
27612;SDS011;15036;48.094;-1.690;2023-05-19T01:33:25;11.27;;;5.10;;
27612;SDS011;15036;48.094;-1.690;2023-05-19T01:35:54;8.85;;;4.47;;
27612;SDS011;15036;48.094;-1.690;2023-05-19T01:38:22;14.50;;;5.43;;
27612;SDS011;15036;48.094;-1.690;2023-05-19T01:40:49;11.15;;;5.53;;
27612;SDS011;15036;48.094;-1.690;2023-05-19T01:43:17;11.80;;;5.05;;
27612;SDS011;15036;48.094;-1.690;2023-05-19T01:45:44;14.77;;;5.65;;
27612;SDS011;15036;48.094;-1.690;2023-05-19T01:48:10;12.27;;;5.88;;
27612;SDS011;15036;48.094;-1.690;2023-05-19T01:50:38;14.15;;;5.70;;
27612;SDS011;15036;48.094;-1.690;2023-05-19T01:53:04;15.15;;;6.22;;
27612;SDS011;15036;48.094;-1.690;2023-05-19T01:55:29;14.50;;;6.28;;
27612;SDS011;15036;48.094;-1.690;2023-05-19T02:00:55;13.32;;;5.53;;
27612;SDS011;15036;48.094;-1.690;2023-05-19T02:12:17;14.50;;;6.82;;
27612;SDS011;15036;48.094;-1.690;2023-05-19T02:17:35;12.43;;;6.20;;
27612;SDS011;15036;48.094;-1.690;2023-05-19T02:22:32;16.05;;;7.28;;
27612;SDS011;15036;48.094;-1.690;2023-05-19T02:24:58;15.90;;;7.40;;
27612;SDS011;15036;48.094;-1.690;2023-05-19T02:27:23;15.48;;;7.70;;
27612;SDS011;15036;48.094;-1.690;2023-05-19T02:29:48;15.63;;;7.85;;
27612;SDS011;15036;48.094;-1.690;2023-05-19T02:32:14;13.20;;;7.10;;
27612;SDS011;15036;48.094;-1.690;2023-05-19T02:34:39;17.80;;;7.35;;
27612;SDS011;15036;48.094;-1.690;2023-05-19T02:37:10;14.68;;;7.18;;
27612;SDS011;15036;48.094;-1.690;2023-05-19T02:39:37;17.00;;;7.22;;
27612;SDS011;15036;48.094;-1.690;2023-05-19T02:42:03;17.77;;;7.72;;
27612;SDS011;15036;48.094;-1.690;2023-05-19T02:44:28;15.70;;;7.30;;
27612;SDS011;15036;48.094;-1.690;2023-05-19T02:46:54;18.75;;;8.43;;
27612;SDS011;15036;48.094;-1.690;2023-05-19T02:49:19;12.70;;;7.40;;
27612;SDS011;15036;48.094;-1.690;2023-05-19T02:51:44;15.90;;;7.75;;
27612;SDS011;15036;48.094;-1.690;2023-05-19T02:54:10;19.35;;;8.10;;
27612;SDS011;15036;48.094;-1.690;2023-05-19T02:56:35;17.23;;;7.82;;
27612;SDS011;15036;48.094;-1.690;2023-05-19T02:59:00;17.38;;;7.65;;
27612;SDS011;15036;48.094;-1.690;2023-05-19T03:01:26;17.75;;;7.95;;
27612;SDS011;15036;48.094;-1.690;2023-05-19T03:03:51;12.27;;;7.40;;
27612;SDS011;15036;48.094;-1.690;2023-05-19T03:06:17;19.05;;;8.60;;
27612;SDS011;15036;48.094;-1.690;2023-05-19T03:08:42;15.23;;;8.00;;
27612;SDS011;15036;48.094;-1.690;2023-05-19T03:11:08;16.95;;;8.57;;
27612;SDS011;15036;48.094;-1.690;2023-05-19T03:13:34;14.73;;;7.38;;
27612;SDS011;15036;48.094;-1.690;2023-05-19T03:15:59;15.32;;;8.10;;
27612;SDS011;15036;48.094;-1.690;2023-05-19T03:18:25;16.75;;;7.97;;
27612;SDS011;15036;48.094;-1.690;2023-05-19T03:20:51;19.33;;;8.18;;
27612;SDS011;15036;48.094;-1.690;2023-05-19T03:23:20;16.45;;;8.35;;
27612;SDS011;15036;48.094;-1.690;2023-05-19T03:25:46;19.13;;;8.48;;
27612;SDS011;15036;48.094;-1.690;2023-05-19T03:28:11;19.33;;;8.73;;
27612;SDS011;15036;48.094;-1.690;2023-05-19T03:30:37;17.70;;;8.32;;
27612;SDS011;15036;48.094;-1.690;2023-05-19T03:33:02;16.60;;;8.52;;
27612;SDS011;15036;48.094;-1.690;2023-05-19T03:35:29;14.63;;;8.70;;
27612;SDS011;15036;48.094;-1.690;2023-05-19T03:37:54;15.02;;;8.23;;
27612;SDS011;15036;48.094;-1.690;2023-05-19T03:40:20;14.93;;;8.00;;
27612;SDS011;15036;48.094;-1.690;2023-05-19T03:42:45;16.35;;;8.38;;
27612;SDS011;15036;48.094;-1.690;2023-05-19T03:45:11;16.95;;;8.15;;
27612;SDS011;15036;48.094;-1.690;2023-05-19T03:47:36;17.55;;;8.23;;
27612;SDS011;15036;48.094;-1.690;2023-05-19T03:50:01;15.68;;;8.25;;
27612;SDS011;15036;48.094;-1.690;2023-05-19T03:52:27;14.90;;;8.10;;
27612;SDS011;15036;48.094;-1.690;2023-05-19T03:54:52;17.25;;;8.30;;
27612;SDS011;15036;48.094;-1.690;2023-05-19T03:57:17;16.05;;;8.10;;
27612;SDS011;15036;48.094;-1.690;2023-05-19T03:59:43;17.75;;;8.60;;
27612;SDS011;15036;48.094;-1.690;2023-05-19T04:02:08;19.13;;;8.32;;
27612;SDS011;15036;48.094;-1.690;2023-05-19T04:04:34;18.90;;;8.43;;
27612;SDS011;15036;48.094;-1.690;2023-05-19T04:07:01;16.00;;;8.32;;
27612;SDS011;15036;48.094;-1.690;2023-05-19T04:09:26;17.20;;;8.02;;
27612;SDS011;15036;48.094;-1.690;2023-05-19T04:11:52;14.98;;;8.15;;
27612;SDS011;15036;48.094;-1.690;2023-05-19T04:14:17;21.25;;;8.27;;
27612;SDS011;15036;48.094;-1.690;2023-05-19T04:16:44;13.13;;;7.75;;
27612;SDS011;15036;48.094;-1.690;2023-05-19T04:19:09;17.25;;;8.20;;
27612;SDS011;15036;48.094;-1.690;2023-05-19T04:21:35;17.00;;;7.45;;
27612;SDS011;15036;48.094;-1.690;2023-05-19T04:24:00;15.23;;;7.43;;
27612;SDS011;15036;48.094;-1.690;2023-05-19T04:26:25;17.17;;;7.97;;
27612;SDS011;15036;48.094;-1.690;2023-05-19T04:28:54;15.82;;;7.43;;
27612;SDS011;15036;48.094;-1.690;2023-05-19T04:31:21;14.50;;;6.88;;
27612;SDS011;15036;48.094;-1.690;2023-05-19T04:33:48;17.27;;;7.72;;
27612;SDS011;15036;48.094;-1.690;2023-05-19T04:36:14;16.10;;;7.57;;
27612;SDS011;15036;48.094;-1.690;2023-05-19T04:38:42;13.23;;;7.10;;
27612;SDS011;15036;48.094;-1.690;2023-05-19T04:41:09;17.58;;;7.07;;
27612;SDS011;15036;48.094;-1.690;2023-05-19T04:43:36;16.08;;;7.80;;
27612;SDS011;15036;48.094;-1.690;2023-05-19T04:46:05;15.02;;;7.85;;
27612;SDS011;15036;48.094;-1.690;2023-05-19T04:48:34;16.20;;;7.25;;
27612;SDS011;15036;48.094;-1.690;2023-05-19T04:51:00;17.70;;;7.43;;
27612;SDS011;15036;48.094;-1.690;2023-05-19T04:53:26;13.00;;;7.10;;
27612;SDS011;15036;48.094;-1.690;2023-05-19T04:55:52;13.23;;;7.10;;
27612;SDS011;15036;48.094;-1.690;2023-05-19T04:58:17;15.13;;;7.43;;
27612;SDS011;15036;48.094;-1.690;2023-05-19T05:00:43;16.27;;;7.57;;
27612;SDS011;15036;48.094;-1.690;2023-05-19T05:03:09;14.65;;;7.38;;
27612;SDS011;15036;48.094;-1.690;2023-05-19T05:05:36;11.45;;;7.57;;
27612;SDS011;15036;48.094;-1.690;2023-05-19T05:08:01;16.85;;;7.78;;
27612;SDS011;15036;48.094;-1.690;2023-05-19T05:10:27;15.38;;;6.95;;
27612;SDS011;15036;48.094;-1.690;2023-05-19T05:12:52;16.13;;;7.28;;
27612;SDS011;15036;48.094;-1.690;2023-05-19T05:15:18;18.13;;;7.82;;
27612;SDS011;15036;48.094;-1.690;2023-05-19T05:17:44;13.15;;;6.88;;
27612;SDS011;15036;48.094;-1.690;2023-05-19T05:20:10;13.93;;;7.40;;
27612;SDS011;15036;48.094;-1.690;2023-05-19T05:22:36;13.90;;;7.45;;
27612;SDS011;15036;48.094;-1.690;2023-05-19T05:25:05;15.93;;;7.93;;
27612;SDS011;15036;48.094;-1.690;2023-05-19T05:27:31;17.10;;;7.47;;
27612;SDS011;15036;48.094;-1.690;2023-05-19T05:29:57;12.95;;;7.68;;
27612;SDS011;15036;48.094;-1.690;2023-05-19T05:32:22;16.48;;;8.00;;
27612;SDS011;15036;48.094;-1.690;2023-05-19T05:34:47;15.88;;;7.70;;
27612;SDS011;15036;48.094;-1.690;2023-05-19T05:37:13;14.30;;;7.50;;
27612;SDS011;15036;48.094;-1.690;2023-05-19T05:39:39;14.75;;;7.15;;
27612;SDS011;15036;48.094;-1.690;2023-05-19T05:42:04;17.63;;;8.27;;
27612;SDS011;15036;48.094;-1.690;2023-05-19T05:44:30;15.35;;;8.38;;
27612;SDS011;15036;48.094;-1.690;2023-05-19T05:46:56;14.85;;;8.05;;
27612;SDS011;15036;48.094;-1.690;2023-05-19T05:49:21;15.77;;;7.80;;
27612;SDS011;15036;48.094;-1.690;2023-05-19T05:51:47;18.50;;;7.97;;
27612;SDS011;15036;48.094;-1.690;2023-05-19T05:54:13;14.55;;;7.53;;
27612;SDS011;15036;48.094;-1.690;2023-05-19T05:56:41;16.23;;;7.63;;
27612;SDS011;15036;48.094;-1.690;2023-05-19T05:59:06;19.50;;;8.77;;
27612;SDS011;15036;48.094;-1.690;2023-05-19T06:01:32;14.73;;;9.00;;
27612;SDS011;15036;48.094;-1.690;2023-05-19T06:03:59;14.43;;;8.90;;
27612;SDS011;15036;48.094;-1.690;2023-05-19T06:06:24;18.42;;;8.75;;
27612;SDS011;15036;48.094;-1.690;2023-05-19T06:08:50;15.90;;;8.63;;
27612;SDS011;15036;48.094;-1.690;2023-05-19T06:11:15;17.33;;;7.90;;
27612;SDS011;15036;48.094;-1.690;2023-05-19T06:13:40;18.48;;;9.20;;
27612;SDS011;15036;48.094;-1.690;2023-05-19T06:16:06;17.88;;;8.45;;
27612;SDS011;15036;48.094;-1.690;2023-05-19T06:18:31;15.88;;;8.57;;
27612;SDS011;15036;48.094;-1.690;2023-05-19T06:20:57;15.38;;;8.70;;
27612;SDS011;15036;48.094;-1.690;2023-05-19T06:23:23;17.13;;;8.40;;
27612;SDS011;15036;48.094;-1.690;2023-05-19T06:25:50;17.77;;;7.78;;
27612;SDS011;15036;48.094;-1.690;2023-05-19T06:28:16;17.88;;;8.88;;
27612;SDS011;15036;48.094;-1.690;2023-05-19T06:30:41;13.02;;;8.77;;
27612;SDS011;15036;48.094;-1.690;2023-05-19T06:33:06;16.27;;;8.98;;
27612;SDS011;15036;48.094;-1.690;2023-05-19T06:35:32;17.15;;;9.77;;
27612;SDS011;15036;48.094;-1.690;2023-05-19T06:37:58;18.88;;;9.45;;
27612;SDS011;15036;48.094;-1.690;2023-05-19T06:40:24;16.73;;;9.15;;
27612;SDS011;15036;48.094;-1.690;2023-05-19T06:42:49;16.02;;;9.43;;
27612;SDS011;15036;48.094;-1.690;2023-05-19T06:45:14;13.63;;;8.80;;
27612;SDS011;15036;48.094;-1.690;2023-05-19T06:47:40;14.82;;;9.00;;
27612;SDS011;15036;48.094;-1.690;2023-05-19T06:50:06;15.13;;;9.10;;
27612;SDS011;15036;48.094;-1.690;2023-05-19T06:52:33;16.65;;;9.02;;
27612;SDS011;15036;48.094;-1.690;2023-05-19T06:54:59;16.65;;;9.13;;
27612;SDS011;15036;48.094;-1.690;2023-05-19T06:57:25;14.43;;;8.02;;
27612;SDS011;15036;48.094;-1.690;2023-05-19T06:59:50;14.48;;;8.25;;
27612;SDS011;15036;48.094;-1.690;2023-05-19T07:02:15;13.02;;;8.02;;
27612;SDS011;15036;48.094;-1.690;2023-05-19T07:04:40;14.38;;;8.25;;
27612;SDS011;15036;48.094;-1.690;2023-05-19T07:07:06;14.60;;;8.30;;
27612;SDS011;15036;48.094;-1.690;2023-05-19T07:09:32;15.65;;;7.60;;
27612;SDS011;15036;48.094;-1.690;2023-05-19T07:11:57;16.25;;;8.45;;
27612;SDS011;15036;48.094;-1.690;2023-05-19T07:14:23;15.02;;;7.65;;
27612;SDS011;15036;48.094;-1.690;2023-05-19T07:16:48;13.90;;;7.20;;
27612;SDS011;15036;48.094;-1.690;2023-05-19T07:19:14;13.05;;;8.00;;
27612;SDS011;15036;48.094;-1.690;2023-05-19T07:21:39;14.77;;;7.47;;
27612;SDS011;15036;48.094;-1.690;2023-05-19T07:24:06;15.30;;;8.25;;
27612;SDS011;15036;48.094;-1.690;2023-05-19T07:26:31;12.93;;;7.68;;
27612;SDS011;15036;48.094;-1.690;2023-05-19T07:28:57;12.82;;;7.65;;
27612;SDS011;15036;48.094;-1.690;2023-05-19T07:31:22;15.82;;;8.65;;
27612;SDS011;15036;48.094;-1.690;2023-05-19T07:33:47;13.88;;;8.50;;
27612;SDS011;15036;48.094;-1.690;2023-05-19T07:36:13;13.02;;;7.63;;
27612;SDS011;15036;48.094;-1.690;2023-05-19T07:38:38;16.73;;;8.43;;
27612;SDS011;15036;48.094;-1.690;2023-05-19T07:41:03;14.05;;;8.48;;
27612;SDS011;15036;48.094;-1.690;2023-05-19T07:43:29;16.88;;;8.43;;
27612;SDS011;15036;48.094;-1.690;2023-05-19T07:45:55;16.30;;;8.60;;
27612;SDS011;15036;48.094;-1.690;2023-05-19T07:48:21;12.75;;;8.10;;
27612;SDS011;15036;48.094;-1.690;2023-05-19T07:50:48;16.13;;;8.93;;
27612;SDS011;15036;48.094;-1.690;2023-05-19T07:53:14;17.02;;;8.45;;
27612;SDS011;15036;48.094;-1.690;2023-05-19T07:55:40;18.67;;;9.23;;
27612;SDS011;15036;48.094;-1.690;2023-05-19T07:58:06;14.98;;;8.45;;
27612;SDS011;15036;48.094;-1.690;2023-05-19T08:00:31;17.10;;;8.73;;
27612;SDS011;15036;48.094;-1.690;2023-05-19T08:02:56;15.43;;;8.82;;
27612;SDS011;15036;48.094;-1.690;2023-05-19T08:05:22;17.08;;;8.52;;
27612;SDS011;15036;48.094;-1.690;2023-05-19T08:07:47;15.32;;;8.45;;
27612;SDS011;15036;48.094;-1.690;2023-05-19T08:10:13;16.35;;;8.88;;
27612;SDS011;15036;48.094;-1.690;2023-05-19T08:12:38;13.80;;;8.15;;
27612;SDS011;15036;48.094;-1.690;2023-05-19T08:15:04;14.55;;;8.13;;
27612;SDS011;15036;48.094;-1.690;2023-05-19T08:17:30;14.23;;;8.02;;
27612;SDS011;15036;48.094;-1.690;2023-05-19T08:19:55;16.27;;;8.15;;
27612;SDS011;15036;48.094;-1.690;2023-05-19T08:22:21;17.55;;;8.38;;
27612;SDS011;15036;48.094;-1.690;2023-05-19T08:24:46;15.00;;;8.23;;
27612;SDS011;15036;48.094;-1.690;2023-05-19T08:27:13;16.20;;;8.85;;
27612;SDS011;15036;48.094;-1.690;2023-05-19T08:29:39;16.75;;;8.02;;
27612;SDS011;15036;48.094;-1.690;2023-05-19T08:32:04;14.55;;;9.77;;
27612;SDS011;15036;48.094;-1.690;2023-05-19T08:34:30;12.90;;;8.40;;
27612;SDS011;15036;48.094;-1.690;2023-05-19T08:36:56;18.63;;;8.73;;
27612;SDS011;15036;48.094;-1.690;2023-05-19T08:39:22;13.43;;;7.55;;
27612;SDS011;15036;48.094;-1.690;2023-05-19T08:41:51;16.77;;;8.25;;
27612;SDS011;15036;48.094;-1.690;2023-05-19T08:44:17;13.40;;;8.00;;
27612;SDS011;15036;48.094;-1.690;2023-05-19T08:46:42;12.82;;;7.47;;
27612;SDS011;15036;48.094;-1.690;2023-05-19T08:49:10;17.85;;;7.70;;
27612;SDS011;15036;48.094;-1.690;2023-05-19T08:51:53;15.30;;;7.60;;
27612;SDS011;15036;48.094;-1.690;2023-05-19T08:54:24;16.90;;;7.18;;
27612;SDS011;15036;48.094;-1.690;2023-05-19T08:56:57;11.38;;;6.13;;
27612;SDS011;15036;48.094;-1.690;2023-05-19T08:59:23;9.50;;;5.43;;
27612;SDS011;15036;48.094;-1.690;2023-05-19T09:01:48;12.48;;;6.03;;
27612;SDS011;15036;48.094;-1.690;2023-05-19T09:04:14;12.68;;;6.30;;
27612;SDS011;15036;48.094;-1.690;2023-05-19T09:06:41;12.98;;;6.55;;
27612;SDS011;15036;48.094;-1.690;2023-05-19T09:09:08;11.80;;;6.00;;
27612;SDS011;15036;48.094;-1.690;2023-05-19T09:11:34;10.77;;;5.82;;
27612;SDS011;15036;48.094;-1.690;2023-05-19T09:14:01;9.95;;;6.03;;
27612;SDS011;15036;48.094;-1.690;2023-05-19T09:16:28;14.77;;;6.05;;
27612;SDS011;15036;48.094;-1.690;2023-05-19T09:18:54;10.80;;;6.13;;
27612;SDS011;15036;48.094;-1.690;2023-05-19T09:21:25;11.52;;;6.25;;
27612;SDS011;15036;48.094;-1.690;2023-05-19T09:23:52;12.45;;;6.30;;
27612;SDS011;15036;48.094;-1.690;2023-05-19T09:26:20;14.20;;;7.13;;
27612;SDS011;15036;48.094;-1.690;2023-05-19T09:28:47;13.23;;;6.63;;
27612;SDS011;15036;48.094;-1.690;2023-05-19T09:31:13;11.63;;;5.97;;
27612;SDS011;15036;48.094;-1.690;2023-05-19T09:33:39;9.40;;;5.68;;
27612;SDS011;15036;48.094;-1.690;2023-05-19T09:36:06;10.93;;;5.38;;
27612;SDS011;15036;48.094;-1.690;2023-05-19T09:38:35;9.98;;;5.72;;
27612;SDS011;15036;48.094;-1.690;2023-05-19T09:41:02;12.00;;;5.38;;
27612;SDS011;15036;48.094;-1.690;2023-05-19T09:43:29;8.73;;;5.07;;
27612;SDS011;15036;48.094;-1.690;2023-05-19T09:48:35;9.98;;;5.55;;
27612;SDS011;15036;48.094;-1.690;2023-05-19T09:51:01;8.50;;;5.40;;
27612;SDS011;15036;48.094;-1.690;2023-05-19T09:53:29;10.80;;;5.50;;
27612;SDS011;15036;48.094;-1.690;2023-05-19T09:55:56;11.35;;;4.75;;
27612;SDS011;15036;48.094;-1.690;2023-05-19T09:58:22;11.32;;;5.45;;
27612;SDS011;15036;48.094;-1.690;2023-05-19T10:00:48;8.30;;;4.60;;
27612;SDS011;15036;48.094;-1.690;2023-05-19T10:03:15;12.05;;;5.07;;
27612;SDS011;15036;48.094;-1.690;2023-05-19T10:05:41;9.32;;;4.60;;
27612;SDS011;15036;48.094;-1.690;2023-05-19T10:08:07;9.50;;;5.38;;
27612;SDS011;15036;48.094;-1.690;2023-05-19T10:10:34;11.00;;;4.22;;
27612;SDS011;15036;48.094;-1.690;2023-05-19T10:13:02;8.52;;;5.10;;
27612;SDS011;15036;48.094;-1.690;2023-05-19T10:15:30;8.80;;;4.70;;
27612;SDS011;15036;48.094;-1.690;2023-05-19T10:17:56;8.27;;;4.68;;
27612;SDS011;15036;48.094;-1.690;2023-05-19T10:20:23;9.73;;;4.82;;
27612;SDS011;15036;48.094;-1.690;2023-05-19T10:22:50;11.40;;;6.13;;
27612;SDS011;15036;48.094;-1.690;2023-05-19T10:25:16;13.48;;;6.18;;
27612;SDS011;15036;48.094;-1.690;2023-05-19T10:27:45;9.95;;;4.55;;
27612;SDS011;15036;48.094;-1.690;2023-05-19T10:30:28;9.93;;;4.60;;
27612;SDS011;15036;48.094;-1.690;2023-05-19T10:32:57;9.73;;;4.55;;
27612;SDS011;15036;48.094;-1.690;2023-05-19T10:35:32;9.13;;;4.38;;
27612;SDS011;15036;48.094;-1.690;2023-05-19T10:46:25;7.40;;;4.63;;
27612;SDS011;15036;48.094;-1.690;2023-05-19T10:48:51;8.35;;;4.80;;
27612;SDS011;15036;48.094;-1.690;2023-05-19T10:51:17;7.95;;;4.22;;
27612;SDS011;15036;48.094;-1.690;2023-05-19T10:53:43;8.43;;;4.57;;
27612;SDS011;15036;48.094;-1.690;2023-05-19T10:56:36;9.95;;;4.80;;
27612;SDS011;15036;48.094;-1.690;2023-05-19T10:59:00;9.50;;;4.57;;
27612;SDS011;15036;48.094;-1.690;2023-05-19T11:01:34;8.63;;;4.03;;
27612;SDS011;15036;48.094;-1.690;2023-05-19T11:04:05;8.13;;;4.40;;
27612;SDS011;15036;48.094;-1.690;2023-05-19T11:06:38;10.20;;;3.97;;
27612;SDS011;15036;48.094;-1.690;2023-05-19T11:14:14;8.38;;;4.22;;
27612;SDS011;15036;48.094;-1.690;2023-05-19T11:16:44;8.30;;;4.22;;
27612;SDS011;15036;48.094;-1.690;2023-05-19T11:19:50;6.65;;;4.25;;
27612;SDS011;15036;48.094;-1.690;2023-05-19T11:22:09;7.28;;;4.43;;
27612;SDS011;15036;48.094;-1.690;2023-05-19T11:29:55;6.55;;;4.35;;
27612;SDS011;15036;48.094;-1.690;2023-05-19T11:32:42;7.00;;;4.30;;
27612;SDS011;15036;48.094;-1.690;2023-05-19T11:35:11;10.75;;;4.50;;
27612;SDS011;15036;48.094;-1.690;2023-05-19T11:37:37;8.05;;;4.55;;
27612;SDS011;15036;48.094;-1.690;2023-05-19T11:40:05;7.10;;;4.05;;
27612;SDS011;15036;48.094;-1.690;2023-05-19T11:42:31;10.82;;;4.18;;
27612;SDS011;15036;48.094;-1.690;2023-05-19T11:45:01;11.68;;;4.55;;
27612;SDS011;15036;48.094;-1.690;2023-05-19T11:47:27;6.82;;;4.10;;
27612;SDS011;15036;48.094;-1.690;2023-05-19T11:49:53;8.57;;;4.53;;
27612;SDS011;15036;48.094;-1.690;2023-05-19T11:52:21;8.15;;;4.45;;
27612;SDS011;15036;48.094;-1.690;2023-05-19T11:54:47;8.43;;;4.63;;
27612;SDS011;15036;48.094;-1.690;2023-05-19T11:57:13;9.02;;;4.47;;
27612;SDS011;15036;48.094;-1.690;2023-05-19T11:59:39;6.95;;;4.18;;
27612;SDS011;15036;48.094;-1.690;2023-05-19T12:02:14;8.60;;;4.05;;
27612;SDS011;15036;48.094;-1.690;2023-05-19T12:04:41;8.02;;;4.57;;
27612;SDS011;15036;48.094;-1.690;2023-05-19T12:07:07;8.77;;;4.47;;
27612;SDS011;15036;48.094;-1.690;2023-05-19T12:09:35;8.10;;;5.03;;
27612;SDS011;15036;48.094;-1.690;2023-05-19T12:12:01;7.68;;;4.55;;
27612;SDS011;15036;48.094;-1.690;2023-05-19T12:14:28;9.27;;;4.97;;
27612;SDS011;15036;48.094;-1.690;2023-05-19T12:16:55;8.48;;;4.93;;
27612;SDS011;15036;48.094;-1.690;2023-05-19T12:19:23;9.02;;;5.30;;
27612;SDS011;15036;48.094;-1.690;2023-05-19T12:21:50;7.35;;;5.07;;
27612;SDS011;15036;48.094;-1.690;2023-05-19T12:24:16;8.98;;;4.60;;
27612;SDS011;15036;48.094;-1.690;2023-05-19T12:26:42;8.52;;;4.80;;
27612;SDS011;15036;48.094;-1.690;2023-05-19T12:29:08;9.93;;;5.32;;
27612;SDS011;15036;48.094;-1.690;2023-05-19T12:31:33;8.30;;;4.68;;
27612;SDS011;15036;48.094;-1.690;2023-05-19T12:33:59;9.77;;;4.72;;
27612;SDS011;15036;48.094;-1.690;2023-05-19T12:36:25;11.20;;;5.10;;
27612;SDS011;15036;48.094;-1.690;2023-05-19T12:38:55;9.73;;;5.35;;
27612;SDS011;15036;48.094;-1.690;2023-05-19T12:41:20;11.10;;;5.05;;
27612;SDS011;15036;48.094;-1.690;2023-05-19T12:43:48;8.52;;;5.20;;
27612;SDS011;15036;48.094;-1.690;2023-05-19T12:46:14;8.85;;;4.63;;
27612;SDS011;15036;48.094;-1.690;2023-05-19T12:48:42;7.22;;;4.88;;
27612;SDS011;15036;48.094;-1.690;2023-05-19T12:51:08;7.88;;;4.78;;
27612;SDS011;15036;48.094;-1.690;2023-05-19T12:53:34;9.70;;;4.78;;
27612;SDS011;15036;48.094;-1.690;2023-05-19T12:56:00;9.00;;;4.85;;
27612;SDS011;15036;48.094;-1.690;2023-05-19T12:58:25;8.80;;;5.03;;
27612;SDS011;15036;48.094;-1.690;2023-05-19T13:00:51;8.00;;;4.80;;
27612;SDS011;15036;48.094;-1.690;2023-05-19T13:03:23;9.50;;;5.15;;
27612;SDS011;15036;48.094;-1.690;2023-05-19T13:05:49;10.48;;;5.30;;
27612;SDS011;15036;48.094;-1.690;2023-05-19T13:08:16;9.50;;;5.50;;
27612;SDS011;15036;48.094;-1.690;2023-05-19T13:10:44;8.52;;;4.90;;
27612;SDS011;15036;48.094;-1.690;2023-05-19T13:13:10;9.63;;;5.43;;
27612;SDS011;15036;48.094;-1.690;2023-05-19T13:15:39;14.38;;;5.72;;
27612;SDS011;15036;48.094;-1.690;2023-05-19T13:18:07;9.73;;;5.25;;
27612;SDS011;15036;48.094;-1.690;2023-05-19T13:20:34;9.60;;;4.85;;
27612;SDS011;15036;48.094;-1.690;2023-05-19T13:23:01;9.43;;;5.22;;
27612;SDS011;15036;48.094;-1.690;2023-05-19T13:25:27;9.73;;;5.30;;
27612;SDS011;15036;48.094;-1.690;2023-05-19T13:27:53;8.35;;;4.60;;
27612;SDS011;15036;48.094;-1.690;2023-05-19T13:30:19;9.43;;;5.70;;
27612;SDS011;15036;48.094;-1.690;2023-05-19T13:32:46;10.82;;;7.00;;
27612;SDS011;15036;48.094;-1.690;2023-05-19T13:35:11;12.23;;;6.97;;
27612;SDS011;15036;48.094;-1.690;2023-05-19T13:37:38;10.13;;;5.85;;
27612;SDS011;15036;48.094;-1.690;2023-05-19T13:40:03;10.27;;;5.70;;
27612;SDS011;15036;48.094;-1.690;2023-05-19T13:42:30;11.18;;;5.45;;
27612;SDS011;15036;48.094;-1.690;2023-05-19T13:44:56;10.60;;;5.90;;
27612;SDS011;15036;48.094;-1.690;2023-05-19T13:47:22;12.48;;;6.00;;
27612;SDS011;15036;48.094;-1.690;2023-05-19T13:49:47;10.30;;;6.30;;
27612;SDS011;15036;48.094;-1.690;2023-05-19T13:52:13;9.77;;;6.10;;
27612;SDS011;15036;48.094;-1.690;2023-05-19T13:54:39;8.60;;;5.82;;
27612;SDS011;15036;48.094;-1.690;2023-05-19T13:57:04;9.40;;;5.45;;
27612;SDS011;15036;48.094;-1.690;2023-05-19T13:59:30;10.05;;;6.00;;
27612;SDS011;15036;48.094;-1.690;2023-05-19T14:01:56;8.50;;;5.25;;
27612;SDS011;15036;48.094;-1.690;2023-05-19T14:04:21;10.02;;;5.70;;
27612;SDS011;15036;48.094;-1.690;2023-05-19T14:06:48;12.73;;;6.32;;
27612;SDS011;15036;48.094;-1.690;2023-05-19T14:09:14;9.90;;;5.90;;
27612;SDS011;15036;48.094;-1.690;2023-05-19T14:11:39;11.32;;;6.18;;
27612;SDS011;15036;48.094;-1.690;2023-05-19T14:14:05;9.43;;;5.82;;
27612;SDS011;15036;48.094;-1.690;2023-05-19T14:16:31;10.88;;;6.28;;
27612;SDS011;15036;48.094;-1.690;2023-05-19T14:18:57;10.55;;;5.93;;
27612;SDS011;15036;48.094;-1.690;2023-05-19T14:21:22;9.73;;;6.15;;
27612;SDS011;15036;48.094;-1.690;2023-05-19T14:23:48;13.65;;;6.97;;
27612;SDS011;15036;48.094;-1.690;2023-05-19T14:26:13;12.48;;;6.57;;
27612;SDS011;15036;48.094;-1.690;2023-05-19T14:28:38;11.27;;;6.72;;
27612;SDS011;15036;48.094;-1.690;2023-05-19T14:31:04;10.00;;;6.20;;
27612;SDS011;15036;48.094;-1.690;2023-05-19T14:33:30;10.90;;;6.60;;
27612;SDS011;15036;48.094;-1.690;2023-05-19T14:35:55;13.60;;;7.32;;
27612;SDS011;15036;48.094;-1.690;2023-05-19T14:38:24;12.60;;;7.43;;
27612;SDS011;15036;48.094;-1.690;2023-05-19T14:40:49;12.73;;;7.35;;
27612;SDS011;15036;48.094;-1.690;2023-05-19T14:43:15;11.98;;;7.32;;
27612;SDS011;15036;48.094;-1.690;2023-05-19T14:45:40;11.50;;;7.22;;
27612;SDS011;15036;48.094;-1.690;2023-05-19T14:48:06;11.98;;;7.88;;
27612;SDS011;15036;48.094;-1.690;2023-05-19T14:50:31;12.10;;;7.60;;
27612;SDS011;15036;48.094;-1.690;2023-05-19T14:52:57;13.27;;;7.88;;
27612;SDS011;15036;48.094;-1.690;2023-05-19T14:55:22;14.82;;;8.25;;
27612;SDS011;15036;48.094;-1.690;2023-05-19T14:57:48;12.30;;;7.18;;
27612;SDS011;15036;48.094;-1.690;2023-05-19T15:00:14;11.48;;;7.70;;
27612;SDS011;15036;48.094;-1.690;2023-05-19T15:02:40;10.35;;;7.32;;
27612;SDS011;15036;48.094;-1.690;2023-05-19T15:05:06;13.98;;;8.02;;
27612;SDS011;15036;48.094;-1.690;2023-05-19T15:07:31;12.77;;;7.68;;
27612;SDS011;15036;48.094;-1.690;2023-05-19T15:09:57;11.15;;;7.57;;
27612;SDS011;15036;48.094;-1.690;2023-05-19T15:12:22;12.23;;;7.35;;
27612;SDS011;15036;48.094;-1.690;2023-05-19T15:14:47;13.68;;;7.60;;